Huvudsida
METAR-TAF:

METAR-TAF

Flygplatser :

Västerås, Sverige

Stockholm-Västerås flygplats

latitud: 59-35N, longitud: 016-38E, höjd: 6 m

Aktuellt väderrapport

Denna rapport gjordes för 37 minuter sedan, klockan 17:50 UTC
Vind 7 kt från ost/sydost
Temperatur 12°C
Fuktighet 47%
Tryck 1014 hPa
Sikt 10 km eller mer

METAR: ESOW 221750Z AUTO 12007KT 9999 NCD 12/01 Q1014

Tid: 20:27 (18:27 UTC)

Väderprognos

Denna rapport gjordes för 6 timmar och 57 minuter sedan, klockan 11:30 UTC
Prognos gäller från 22 kl. 12 UTC till 22 kl. 14 UTC
Vind 5 kt från sydväst
Sikt 10 km eller mer
Inga moln under 1 500 m eller inga cumulonimbus

TAF: ESOW 221130Z 2212/2214 22005KT CAVOK

Aktuella väderrapporter och prognoser från 4000 flygplatser (METAR- och TAF-rapporter).

De tillgängliga stationerna syns som gula och röda prickar på kartan.

För musen över prickarna för att se namnen på stationerna.

Klicka sedan för att få väderrapporter och prognoser.

För att ändra kartan: Klicka på de gröna knapparna med ett svart kors på för att zooma in; den gröna knappen med ett streck på för att zooma ut; eller på de gröna pilarna för angränsande kartor.


METAR-TAF: